sensor_id;sensor_type;location;lat;lon;timestamp;P1;durP1;ratioP1;P2;durP2;ratioP2
76259;SDS011;65076;52.362;6.588;2023-06-14T00:02:23;6.82;;;2.60;;
76259;SDS011;65076;52.362;6.588;2023-06-14T00:04:52;6.93;;;2.60;;
76259;SDS011;65076;52.362;6.588;2023-06-14T00:07:21;5.40;;;2.67;;
76259;SDS011;65076;52.362;6.588;2023-06-14T00:10:02;7.53;;;2.72;;
76259;SDS011;65076;52.362;6.588;2023-06-14T00:12:31;4.70;;;2.22;;
76259;SDS011;65076;52.362;6.588;2023-06-14T00:14:59;5.20;;;3.13;;
76259;SDS011;65076;52.362;6.588;2023-06-14T00:17:29;5.57;;;2.60;;
76259;SDS011;65076;52.362;6.588;2023-06-14T00:19:57;4.15;;;2.75;;
76259;SDS011;65076;52.362;6.588;2023-06-14T00:22:26;6.18;;;3.05;;
76259;SDS011;65076;52.362;6.588;2023-06-14T00:24:57;8.98;;;3.00;;
76259;SDS011;65076;52.362;6.588;2023-06-14T00:27:33;4.05;;;2.80;;
76259;SDS011;65076;52.362;6.588;2023-06-14T00:30:01;6.50;;;3.08;;
76259;SDS011;65076;52.362;6.588;2023-06-14T00:32:30;6.20;;;3.22;;
76259;SDS011;65076;52.362;6.588;2023-06-14T00:34:58;6.45;;;3.00;;
76259;SDS011;65076;52.362;6.588;2023-06-14T00:37:26;5.22;;;2.90;;
76259;SDS011;65076;52.362;6.588;2023-06-14T00:39:55;8.30;;;2.40;;
76259;SDS011;65076;52.362;6.588;2023-06-14T00:42:23;5.60;;;2.70;;
76259;SDS011;65076;52.362;6.588;2023-06-14T00:44:52;6.13;;;2.65;;
76259;SDS011;65076;52.362;6.588;2023-06-14T00:47:21;4.00;;;2.33;;
76259;SDS011;65076;52.362;6.588;2023-06-14T00:49:51;6.57;;;2.55;;
76259;SDS011;65076;52.362;6.588;2023-06-14T00:52:22;6.97;;;2.53;;
76259;SDS011;65076;52.362;6.588;2023-06-14T00:54:51;5.97;;;2.92;;
76259;SDS011;65076;52.362;6.588;2023-06-14T00:57:19;4.28;;;2.30;;
76259;SDS011;65076;52.362;6.588;2023-06-14T00:59:48;5.88;;;2.30;;
76259;SDS011;65076;52.362;6.588;2023-06-14T01:02:17;3.88;;;2.03;;
76259;SDS011;65076;52.362;6.588;2023-06-14T01:04:46;7.72;;;2.05;;
76259;SDS011;65076;52.362;6.588;2023-06-14T01:07:21;3.17;;;1.98;;
76259;SDS011;65076;52.362;6.588;2023-06-14T01:10:04;4.78;;;2.55;;
76259;SDS011;65076;52.362;6.588;2023-06-14T01:12:51;6.60;;;2.20;;
76259;SDS011;65076;52.362;6.588;2023-06-14T01:15:26;4.82;;;1.83;;
76259;SDS011;65076;52.362;6.588;2023-06-14T01:17:57;5.05;;;2.40;;
76259;SDS011;65076;52.362;6.588;2023-06-14T01:20:30;5.65;;;2.30;;
76259;SDS011;65076;52.362;6.588;2023-06-14T01:23:04;5.97;;;2.53;;
76259;SDS011;65076;52.362;6.588;2023-06-14T01:25:32;6.05;;;2.60;;
76259;SDS011;65076;52.362;6.588;2023-06-14T01:28:02;7.70;;;3.08;;
76259;SDS011;65076;52.362;6.588;2023-06-14T01:30:36;5.35;;;2.83;;
76259;SDS011;65076;52.362;6.588;2023-06-14T01:33:11;6.03;;;2.90;;
76259;SDS011;65076;52.362;6.588;2023-06-14T01:35:42;8.50;;;3.42;;
76259;SDS011;65076;52.362;6.588;2023-06-14T01:38:15;9.60;;;3.58;;
76259;SDS011;65076;52.362;6.588;2023-06-14T01:40:47;7.18;;;3.22;;
76259;SDS011;65076;52.362;6.588;2023-06-14T01:43:17;6.50;;;3.17;;
76259;SDS011;65076;52.362;6.588;2023-06-14T01:45:47;6.68;;;3.25;;
76259;SDS011;65076;52.362;6.588;2023-06-14T01:48:18;5.80;;;2.92;;
76259;SDS011;65076;52.362;6.588;2023-06-14T01:50:47;4.97;;;3.42;;
76259;SDS011;65076;52.362;6.588;2023-06-14T01:53:17;7.63;;;2.70;;
76259;SDS011;65076;52.362;6.588;2023-06-14T01:55:45;8.77;;;2.83;;
76259;SDS011;65076;52.362;6.588;2023-06-14T01:58:15;8.85;;;3.88;;
76259;SDS011;65076;52.362;6.588;2023-06-14T02:00:43;7.65;;;3.78;;
76259;SDS011;65076;52.362;6.588;2023-06-14T02:03:11;6.05;;;2.55;;
76259;SDS011;65076;52.362;6.588;2023-06-14T02:05:39;4.57;;;3.00;;
76259;SDS011;65076;52.362;6.588;2023-06-14T02:08:08;4.22;;;2.63;;
76259;SDS011;65076;52.362;6.588;2023-06-14T02:10:37;4.38;;;2.20;;
76259;SDS011;65076;52.362;6.588;2023-06-14T02:13:05;3.15;;;2.63;;
76259;SDS011;65076;52.362;6.588;2023-06-14T02:15:33;3.05;;;2.10;;
76259;SDS011;65076;52.362;6.588;2023-06-14T02:18:02;4.82;;;2.67;;
76259;SDS011;65076;52.362;6.588;2023-06-14T02:20:30;6.43;;;2.72;;
76259;SDS011;65076;52.362;6.588;2023-06-14T02:22:59;6.22;;;2.47;;
76259;SDS011;65076;52.362;6.588;2023-06-14T02:25:27;7.10;;;2.50;;
76259;SDS011;65076;52.362;6.588;2023-06-14T02:27:57;6.68;;;2.08;;
76259;SDS011;65076;52.362;6.588;2023-06-14T02:30:25;5.28;;;2.50;;
76259;SDS011;65076;52.362;6.588;2023-06-14T02:32:53;5.00;;;3.00;;
76259;SDS011;65076;52.362;6.588;2023-06-14T02:35:21;4.82;;;2.45;;
76259;SDS011;65076;52.362;6.588;2023-06-14T02:37:52;7.57;;;3.05;;
76259;SDS011;65076;52.362;6.588;2023-06-14T02:40:21;10.20;;;2.42;;
76259;SDS011;65076;52.362;6.588;2023-06-14T02:42:48;3.08;;;2.30;;
76259;SDS011;65076;52.362;6.588;2023-06-14T02:45:18;7.05;;;2.40;;
76259;SDS011;65076;52.362;6.588;2023-06-14T02:47:47;5.22;;;2.40;;
76259;SDS011;65076;52.362;6.588;2023-06-14T02:50:15;3.95;;;2.22;;
76259;SDS011;65076;52.362;6.588;2023-06-14T02:52:44;7.03;;;2.72;;
76259;SDS011;65076;52.362;6.588;2023-06-14T02:55:12;5.43;;;2.70;;
76259;SDS011;65076;52.362;6.588;2023-06-14T02:57:39;5.10;;;3.00;;
76259;SDS011;65076;52.362;6.588;2023-06-14T03:00:08;5.85;;;2.38;;
76259;SDS011;65076;52.362;6.588;2023-06-14T03:02:41;2.35;;;1.92;;
76259;SDS011;65076;52.362;6.588;2023-06-14T03:05:10;5.63;;;2.00;;
76259;SDS011;65076;52.362;6.588;2023-06-14T03:07:39;3.45;;;1.75;;
76259;SDS011;65076;52.362;6.588;2023-06-14T03:10:07;3.90;;;2.20;;
76259;SDS011;65076;52.362;6.588;2023-06-14T03:12:36;4.03;;;2.22;;
76259;SDS011;65076;52.362;6.588;2023-06-14T03:15:04;3.13;;;2.00;;
76259;SDS011;65076;52.362;6.588;2023-06-14T03:17:33;3.20;;;1.88;;
76259;SDS011;65076;52.362;6.588;2023-06-14T03:20:07;5.88;;;1.60;;
76259;SDS011;65076;52.362;6.588;2023-06-14T03:22:35;3.55;;;1.67;;
76259;SDS011;65076;52.362;6.588;2023-06-14T03:25:04;6.72;;;2.42;;
76259;SDS011;65076;52.362;6.588;2023-06-14T03:27:33;2.83;;;1.50;;
76259;SDS011;65076;52.362;6.588;2023-06-14T03:30:01;6.75;;;2.00;;
76259;SDS011;65076;52.362;6.588;2023-06-14T03:32:31;1.95;;;1.75;;
76259;SDS011;65076;52.362;6.588;2023-06-14T03:34:59;2.08;;;1.77;;
76259;SDS011;65076;52.362;6.588;2023-06-14T03:37:29;4.95;;;1.73;;
76259;SDS011;65076;52.362;6.588;2023-06-14T03:39:56;5.78;;;1.60;;
76259;SDS011;65076;52.362;6.588;2023-06-14T03:42:24;4.18;;;1.65;;
76259;SDS011;65076;52.362;6.588;2023-06-14T03:44:52;3.35;;;1.98;;
76259;SDS011;65076;52.362;6.588;2023-06-14T03:47:20;3.60;;;1.55;;
76259;SDS011;65076;52.362;6.588;2023-06-14T03:49:48;3.88;;;1.88;;
76259;SDS011;65076;52.362;6.588;2023-06-14T03:52:18;5.13;;;2.10;;
76259;SDS011;65076;52.362;6.588;2023-06-14T03:54:49;3.28;;;1.58;;
76259;SDS011;65076;52.362;6.588;2023-06-14T03:57:21;7.93;;;1.95;;
76259;SDS011;65076;52.362;6.588;2023-06-14T03:59:52;3.63;;;1.88;;
76259;SDS011;65076;52.362;6.588;2023-06-14T04:02:20;3.50;;;1.83;;
76259;SDS011;65076;52.362;6.588;2023-06-14T04:04:49;2.90;;;2.10;;
76259;SDS011;65076;52.362;6.588;2023-06-14T04:07:18;3.70;;;1.90;;
76259;SDS011;65076;52.362;6.588;2023-06-14T04:09:46;1.90;;;1.60;;
76259;SDS011;65076;52.362;6.588;2023-06-14T04:12:16;3.13;;;1.92;;
76259;SDS011;65076;52.362;6.588;2023-06-14T04:14:44;4.32;;;2.13;;
76259;SDS011;65076;52.362;6.588;2023-06-14T04:17:11;5.03;;;2.10;;
76259;SDS011;65076;52.362;6.588;2023-06-14T04:19:39;9.82;;;2.80;;
76259;SDS011;65076;52.362;6.588;2023-06-14T04:22:07;3.13;;;2.05;;
76259;SDS011;65076;52.362;6.588;2023-06-14T04:24:37;4.65;;;2.50;;
76259;SDS011;65076;52.362;6.588;2023-06-14T04:27:04;4.88;;;2.03;;
76259;SDS011;65076;52.362;6.588;2023-06-14T04:29:34;7.85;;;2.13;;
76259;SDS011;65076;52.362;6.588;2023-06-14T04:32:03;3.00;;;1.75;;
76259;SDS011;65076;52.362;6.588;2023-06-14T04:34:36;3.20;;;1.90;;
76259;SDS011;65076;52.362;6.588;2023-06-14T04:37:06;3.83;;;1.88;;
76259;SDS011;65076;52.362;6.588;2023-06-14T04:39:34;2.90;;;1.67;;
76259;SDS011;65076;52.362;6.588;2023-06-14T04:42:02;3.55;;;1.67;;
76259;SDS011;65076;52.362;6.588;2023-06-14T04:44:35;2.90;;;1.90;;
76259;SDS011;65076;52.362;6.588;2023-06-14T04:47:06;3.30;;;2.13;;
76259;SDS011;65076;52.362;6.588;2023-06-14T04:49:35;5.32;;;2.03;;
76259;SDS011;65076;52.362;6.588;2023-06-14T04:52:04;4.28;;;1.95;;
76259;SDS011;65076;52.362;6.588;2023-06-14T04:54:36;4.00;;;1.80;;
76259;SDS011;65076;52.362;6.588;2023-06-14T04:57:07;4.25;;;2.20;;
76259;SDS011;65076;52.362;6.588;2023-06-14T04:59:41;3.72;;;2.05;;
76259;SDS011;65076;52.362;6.588;2023-06-14T05:02:10;4.45;;;2.15;;
76259;SDS011;65076;52.362;6.588;2023-06-14T05:04:39;5.10;;;2.33;;
76259;SDS011;65076;52.362;6.588;2023-06-14T05:07:07;5.15;;;1.88;;
76259;SDS011;65076;52.362;6.588;2023-06-14T05:09:36;3.70;;;1.85;;
76259;SDS011;65076;52.362;6.588;2023-06-14T05:12:05;5.20;;;2.30;;
76259;SDS011;65076;52.362;6.588;2023-06-14T05:14:35;4.75;;;2.20;;
76259;SDS011;65076;52.362;6.588;2023-06-14T05:17:04;5.30;;;2.08;;
76259;SDS011;65076;52.362;6.588;2023-06-14T05:19:33;2.58;;;1.95;;
76259;SDS011;65076;52.362;6.588;2023-06-14T05:22:01;2.80;;;1.77;;
76259;SDS011;65076;52.362;6.588;2023-06-14T05:24:30;5.07;;;1.88;;
76259;SDS011;65076;52.362;6.588;2023-06-14T05:26:58;6.38;;;2.03;;
76259;SDS011;65076;52.362;6.588;2023-06-14T05:29:26;4.53;;;1.88;;
76259;SDS011;65076;52.362;6.588;2023-06-14T05:31:56;5.68;;;1.73;;
76259;SDS011;65076;52.362;6.588;2023-06-14T05:34:26;3.55;;;2.28;;
76259;SDS011;65076;52.362;6.588;2023-06-14T05:36:53;5.05;;;2.47;;
76259;SDS011;65076;52.362;6.588;2023-06-14T05:39:21;4.20;;;2.20;;
76259;SDS011;65076;52.362;6.588;2023-06-14T05:41:50;3.25;;;1.92;;
76259;SDS011;65076;52.362;6.588;2023-06-14T05:44:18;4.60;;;2.47;;
76259;SDS011;65076;52.362;6.588;2023-06-14T05:46:46;4.68;;;2.22;;
76259;SDS011;65076;52.362;6.588;2023-06-14T05:49:14;3.88;;;2.13;;
76259;SDS011;65076;52.362;6.588;2023-06-14T05:51:43;2.05;;;1.85;;
76259;SDS011;65076;52.362;6.588;2023-06-14T05:54:12;3.45;;;2.22;;
76259;SDS011;65076;52.362;6.588;2023-06-14T05:56:40;5.20;;;2.00;;
76259;SDS011;65076;52.362;6.588;2023-06-14T05:59:08;5.95;;;1.90;;
76259;SDS011;65076;52.362;6.588;2023-06-14T06:01:35;4.78;;;2.13;;
76259;SDS011;65076;52.362;6.588;2023-06-14T06:04:07;7.03;;;2.08;;
76259;SDS011;65076;52.362;6.588;2023-06-14T06:06:35;2.65;;;1.80;;
76259;SDS011;65076;52.362;6.588;2023-06-14T06:09:04;2.20;;;1.60;;
76259;SDS011;65076;52.362;6.588;2023-06-14T06:11:33;3.38;;;1.70;;
76259;SDS011;65076;52.362;6.588;2023-06-14T06:14:17;2.15;;;1.83;;
76259;SDS011;65076;52.362;6.588;2023-06-14T06:16:45;5.85;;;2.00;;
76259;SDS011;65076;52.362;6.588;2023-06-14T06:19:13;3.20;;;1.88;;
76259;SDS011;65076;52.362;6.588;2023-06-14T06:21:41;2.80;;;1.85;;
76259;SDS011;65076;52.362;6.588;2023-06-14T06:24:10;2.85;;;1.75;;
76259;SDS011;65076;52.362;6.588;2023-06-14T06:29:07;3.33;;;1.67;;
76259;SDS011;65076;52.362;6.588;2023-06-14T06:31:35;7.82;;;2.00;;
76259;SDS011;65076;52.362;6.588;2023-06-14T06:34:03;2.80;;;1.55;;
76259;SDS011;65076;52.362;6.588;2023-06-14T06:36:30;3.83;;;1.50;;
76259;SDS011;65076;52.362;6.588;2023-06-14T06:38:58;3.55;;;2.17;;
76259;SDS011;65076;52.362;6.588;2023-06-14T06:41:28;3.65;;;1.73;;
76259;SDS011;65076;52.362;6.588;2023-06-14T06:43:57;4.13;;;1.80;;
76259;SDS011;65076;52.362;6.588;2023-06-14T06:46:25;5.97;;;1.50;;
76259;SDS011;65076;52.362;6.588;2023-06-14T06:48:53;2.10;;;1.50;;
76259;SDS011;65076;52.362;6.588;2023-06-14T06:51:22;7.05;;;1.42;;
76259;SDS011;65076;52.362;6.588;2023-06-14T06:53:52;2.78;;;1.42;;
76259;SDS011;65076;52.362;6.588;2023-06-14T06:56:21;3.50;;;1.92;;
76259;SDS011;65076;52.362;6.588;2023-06-14T06:58:51;3.58;;;1.60;;
76259;SDS011;65076;52.362;6.588;2023-06-14T07:01:19;2.72;;;1.38;;
76259;SDS011;65076;52.362;6.588;2023-06-14T07:03:47;1.48;;;1.20;;
76259;SDS011;65076;52.362;6.588;2023-06-14T07:06:15;3.40;;;1.40;;
76259;SDS011;65076;52.362;6.588;2023-06-14T07:08:44;5.20;;;1.90;;
76259;SDS011;65076;52.362;6.588;2023-06-14T07:11:14;4.10;;;1.48;;
76259;SDS011;65076;52.362;6.588;2023-06-14T07:13:42;4.30;;;1.55;;
76259;SDS011;65076;52.362;6.588;2023-06-14T07:16:11;3.47;;;1.38;;
76259;SDS011;65076;52.362;6.588;2023-06-14T07:21:07;4.10;;;1.42;;
76259;SDS011;65076;52.362;6.588;2023-06-14T07:23:35;3.10;;;1.50;;
76259;SDS011;65076;52.362;6.588;2023-06-14T07:26:03;3.60;;;1.27;;
76259;SDS011;65076;52.362;6.588;2023-06-14T07:28:31;3.90;;;1.90;;
76259;SDS011;65076;52.362;6.588;2023-06-14T07:31:02;2.63;;;1.30;;
76259;SDS011;65076;52.362;6.588;2023-06-14T07:33:31;2.40;;;1.50;;
76259;SDS011;65076;52.362;6.588;2023-06-14T07:36:00;3.50;;;1.60;;
76259;SDS011;65076;52.362;6.588;2023-06-14T07:38:28;5.15;;;1.80;;
76259;SDS011;65076;52.362;6.588;2023-06-14T07:40:56;2.35;;;1.38;;
76259;SDS011;65076;52.362;6.588;2023-06-14T07:43:24;3.20;;;1.52;;
76259;SDS011;65076;52.362;6.588;2023-06-14T07:45:52;2.53;;;1.42;;
76259;SDS011;65076;52.362;6.588;2023-06-14T07:48:34;3.47;;;1.50;;
76259;SDS011;65076;52.362;6.588;2023-06-14T07:51:02;5.43;;;1.80;;
76259;SDS011;65076;52.362;6.588;2023-06-14T07:53:30;2.90;;;1.42;;
76259;SDS011;65076;52.362;6.588;2023-06-14T07:55:58;4.20;;;2.00;;
76259;SDS011;65076;52.362;6.588;2023-06-14T07:58:26;2.22;;;1.77;;
76259;SDS011;65076;52.362;6.588;2023-06-14T08:00:54;2.88;;;1.50;;
76259;SDS011;65076;52.362;6.588;2023-06-14T08:03:22;3.30;;;1.70;;
76259;SDS011;65076;52.362;6.588;2023-06-14T08:05:51;1.80;;;1.38;;
76259;SDS011;65076;52.362;6.588;2023-06-14T08:08:19;3.78;;;1.25;;
76259;SDS011;65076;52.362;6.588;2023-06-14T08:10:47;2.13;;;1.13;;
76259;SDS011;65076;52.362;6.588;2023-06-14T08:13:15;3.78;;;1.40;;
76259;SDS011;65076;52.362;6.588;2023-06-14T08:15:43;3.28;;;1.48;;
76259;SDS011;65076;52.362;6.588;2023-06-14T08:18:12;3.95;;;1.70;;
76259;SDS011;65076;52.362;6.588;2023-06-14T08:20:41;5.10;;;1.35;;
76259;SDS011;65076;52.362;6.588;2023-06-14T08:23:11;1.40;;;1.10;;
76259;SDS011;65076;52.362;6.588;2023-06-14T08:25:42;3.42;;;1.30;;
76259;SDS011;65076;52.362;6.588;2023-06-14T08:28:10;1.30;;;0.90;;
76259;SDS011;65076;52.362;6.588;2023-06-14T08:30:38;3.28;;;1.30;;
76259;SDS011;65076;52.362;6.588;2023-06-14T08:33:06;2.33;;;1.23;;
76259;SDS011;65076;52.362;6.588;2023-06-14T08:35:42;2.92;;;1.20;;
76259;SDS011;65076;52.362;6.588;2023-06-14T08:38:12;3.97;;;1.17;;
76259;SDS011;65076;52.362;6.588;2023-06-14T08:40:41;9.02;;;1.48;;
76259;SDS011;65076;52.362;6.588;2023-06-14T08:43:09;1.27;;;1.05;;
76259;SDS011;65076;52.362;6.588;2023-06-14T08:45:37;1.50;;;1.30;;
76259;SDS011;65076;52.362;6.588;2023-06-14T08:48:06;3.10;;;1.33;;
76259;SDS011;65076;52.362;6.588;2023-06-14T08:50:35;2.67;;;1.13;;
76259;SDS011;65076;52.362;6.588;2023-06-14T08:53:09;4.82;;;1.13;;
76259;SDS011;65076;52.362;6.588;2023-06-14T08:55:46;3.25;;;1.35;;
76259;SDS011;65076;52.362;6.588;2023-06-14T08:58:14;2.45;;;1.10;;
76259;SDS011;65076;52.362;6.588;2023-06-14T09:00:43;2.22;;;1.17;;
76259;SDS011;65076;52.362;6.588;2023-06-14T09:03:12;3.92;;;1.52;;
76259;SDS011;65076;52.362;6.588;2023-06-14T09:05:41;3.33;;;1.33;;
76259;SDS011;65076;52.362;6.588;2023-06-14T09:10:40;4.32;;;1.45;;
76259;SDS011;65076;52.362;6.588;2023-06-14T09:13:08;2.05;;;1.40;;
76259;SDS011;65076;52.362;6.588;2023-06-14T09:15:36;1.38;;;1.05;;
76259;SDS011;65076;52.362;6.588;2023-06-14T09:18:04;3.47;;;1.38;;
76259;SDS011;65076;52.362;6.588;2023-06-14T09:20:33;1.92;;;1.30;;
76259;SDS011;65076;52.362;6.588;2023-06-14T09:23:01;2.80;;;1.60;;
76259;SDS011;65076;52.362;6.588;2023-06-14T09:25:34;1.80;;;1.33;;
76259;SDS011;65076;52.362;6.588;2023-06-14T09:28:11;4.45;;;1.27;;
76259;SDS011;65076;52.362;6.588;2023-06-14T09:30:39;2.78;;;1.17;;
76259;SDS011;65076;52.362;6.588;2023-06-14T09:33:07;2.80;;;1.15;;
76259;SDS011;65076;52.362;6.588;2023-06-14T09:35:35;3.92;;;1.20;;
76259;SDS011;65076;52.362;6.588;2023-06-14T09:38:04;2.53;;;1.35;;
76259;SDS011;65076;52.362;6.588;2023-06-14T09:40:35;3.03;;;1.30;;
76259;SDS011;65076;52.362;6.588;2023-06-14T09:43:04;1.70;;;1.58;;
76259;SDS011;65076;52.362;6.588;2023-06-14T09:45:36;6.45;;;1.48;;
76259;SDS011;65076;52.362;6.588;2023-06-14T09:48:07;4.60;;;1.58;;
76259;SDS011;65076;52.362;6.588;2023-06-14T09:50:35;4.55;;;1.20;;
76259;SDS011;65076;52.362;6.588;2023-06-14T09:53:05;3.22;;;1.98;;
76259;SDS011;65076;52.362;6.588;2023-06-14T09:55:37;1.90;;;1.33;;
76259;SDS011;65076;52.362;6.588;2023-06-14T09:58:07;3.65;;;1.40;;
76259;SDS011;65076;52.362;6.588;2023-06-14T10:00:39;2.15;;;1.48;;
76259;SDS011;65076;52.362;6.588;2023-06-14T10:03:11;1.30;;;1.20;;
76259;SDS011;65076;52.362;6.588;2023-06-14T10:05:42;5.28;;;1.55;;
76259;SDS011;65076;52.362;6.588;2023-06-14T10:08:13;3.17;;;1.50;;
76259;SDS011;65076;52.362;6.588;2023-06-14T10:10:45;2.60;;;1.45;;
76259;SDS011;65076;52.362;6.588;2023-06-14T10:13:14;4.00;;;1.40;;
76259;SDS011;65076;52.362;6.588;2023-06-14T10:15:50;4.30;;;1.58;;
76259;SDS011;65076;52.362;6.588;2023-06-14T10:18:30;3.55;;;1.50;;
76259;SDS011;65076;52.362;6.588;2023-06-14T10:21:08;2.35;;;1.45;;
76259;SDS011;65076;52.362;6.588;2023-06-14T10:23:49;3.58;;;1.58;;
76259;SDS011;65076;52.362;6.588;2023-06-14T10:26:22;1.88;;;1.30;;
76259;SDS011;65076;52.362;6.588;2023-06-14T10:28:59;3.38;;;1.48;;
76259;SDS011;65076;52.362;6.588;2023-06-14T10:31:41;3.10;;;1.23;;
76259;SDS011;65076;52.362;6.588;2023-06-14T10:34:11;4.38;;;1.20;;
76259;SDS011;65076;52.362;6.588;2023-06-14T10:36:59;4.93;;;1.35;;
76259;SDS011;65076;52.362;6.588;2023-06-14T10:39:38;3.70;;;1.30;;
76259;SDS011;65076;52.362;6.588;2023-06-14T10:42:10;2.38;;;1.73;;
76259;SDS011;65076;52.362;6.588;2023-06-14T10:44:42;4.07;;;1.40;;
76259;SDS011;65076;52.362;6.588;2023-06-14T10:50:05;1.55;;;1.27;;
76259;SDS011;65076;52.362;6.588;2023-06-14T10:52:37;1.33;;;1.20;;
76259;SDS011;65076;52.362;6.588;2023-06-14T10:55:12;3.42;;;1.55;;
76259;SDS011;65076;52.362;6.588;2023-06-14T10:57:45;2.97;;;1.27;;
76259;SDS011;65076;52.362;6.588;2023-06-14T11:00:19;3.58;;;1.33;;
76259;SDS011;65076;52.362;6.588;2023-06-14T11:06:10;2.22;;;1.02;;
76259;SDS011;65076;52.362;6.588;2023-06-14T11:11:56;3.13;;;1.80;;
76259;SDS011;65076;52.362;6.588;2023-06-14T11:16:57;1.60;;;1.25;;
76259;SDS011;65076;52.362;6.588;2023-06-14T11:19:25;1.33;;;0.90;;
76259;SDS011;65076;52.362;6.588;2023-06-14T11:21:54;9.23;;;2.58;;
76259;SDS011;65076;52.362;6.588;2023-06-14T11:24:22;3.60;;;1.52;;
76259;SDS011;65076;52.362;6.588;2023-06-14T11:26:50;2.58;;;1.30;;
76259;SDS011;65076;52.362;6.588;2023-06-14T11:29:20;3.40;;;1.25;;
76259;SDS011;65076;52.362;6.588;2023-06-14T11:31:49;3.15;;;1.45;;
76259;SDS011;65076;52.362;6.588;2023-06-14T11:34:18;3.33;;;1.10;;
76259;SDS011;65076;52.362;6.588;2023-06-14T11:36:46;2.50;;;1.13;;
76259;SDS011;65076;52.362;6.588;2023-06-14T11:39:14;3.05;;;1.20;;
76259;SDS011;65076;52.362;6.588;2023-06-14T11:41:43;1.50;;;1.17;;
76259;SDS011;65076;52.362;6.588;2023-06-14T11:44:12;3.78;;;1.23;;
76259;SDS011;65076;52.362;6.588;2023-06-14T11:46:40;2.58;;;1.10;;
76259;SDS011;65076;52.362;6.588;2023-06-14T11:49:10;2.53;;;1.23;;
76259;SDS011;65076;52.362;6.588;2023-06-14T11:51:38;3.80;;;1.65;;
76259;SDS011;65076;52.362;6.588;2023-06-14T11:54:06;3.72;;;1.15;;
76259;SDS011;65076;52.362;6.588;2023-06-14T11:56:36;1.65;;;1.30;;
76259;SDS011;65076;52.362;6.588;2023-06-14T11:59:04;2.30;;;1.00;;
76259;SDS011;65076;52.362;6.588;2023-06-14T12:01:35;2.00;;;1.40;;
76259;SDS011;65076;52.362;6.588;2023-06-14T12:04:06;4.03;;;1.40;;
76259;SDS011;65076;52.362;6.588;2023-06-14T12:06:35;1.63;;;1.00;;
76259;SDS011;65076;52.362;6.588;2023-06-14T12:09:08;2.20;;;1.08;;
76259;SDS011;65076;52.362;6.588;2023-06-14T12:11:40;2.33;;;1.30;;
76259;SDS011;65076;52.362;6.588;2023-06-14T12:14:08;1.67;;;0.90;;
76259;SDS011;65076;52.362;6.588;2023-06-14T12:16:38;1.42;;;0.80;;
76259;SDS011;65076;52.362;6.588;2023-06-14T12:19:08;2.00;;;1.17;;
76259;SDS011;65076;52.362;6.588;2023-06-14T12:21:42;1.50;;;1.08;;
76259;SDS011;65076;52.362;6.588;2023-06-14T12:24:14;2.70;;;0.80;;
76259;SDS011;65076;52.362;6.588;2023-06-14T12:26:42;1.63;;;1.02;;
76259;SDS011;65076;52.362;6.588;2023-06-14T12:29:10;1.63;;;1.25;;
76259;SDS011;65076;52.362;6.588;2023-06-14T12:31:39;1.17;;;0.98;;
76259;SDS011;65076;52.362;6.588;2023-06-14T12:34:08;3.35;;;1.02;;
76259;SDS011;65076;52.362;6.588;2023-06-14T12:36:36;2.55;;;1.10;;
76259;SDS011;65076;52.362;6.588;2023-06-14T12:39:11;2.63;;;1.00;;
76259;SDS011;65076;52.362;6.588;2023-06-14T12:41:40;2.88;;;1.10;;
76259;SDS011;65076;52.362;6.588;2023-06-14T12:44:09;4.45;;;1.27;;
76259;SDS011;65076;52.362;6.588;2023-06-14T12:46:38;2.33;;;1.00;;
76259;SDS011;65076;52.362;6.588;2023-06-14T12:49:08;2.72;;;1.17;;
76259;SDS011;65076;52.362;6.588;2023-06-14T12:51:38;1.60;;;0.90;;
76259;SDS011;65076;52.362;6.588;2023-06-14T12:54:07;3.10;;;1.13;;
76259;SDS011;65076;52.362;6.588;2023-06-14T12:56:36;4.25;;;1.40;;
76259;SDS011;65076;52.362;6.588;2023-06-14T12:59:04;2.30;;;1.00;;
76259;SDS011;65076;52.362;6.588;2023-06-14T13:04:01;1.70;;;1.25;;
76259;SDS011;65076;52.362;6.588;2023-06-14T13:06:29;7.47;;;1.10;;
76259;SDS011;65076;52.362;6.588;2023-06-14T13:08:57;1.42;;;1.05;;
76259;SDS011;65076;52.362;6.588;2023-06-14T13:11:25;2.05;;;1.25;;
76259;SDS011;65076;52.362;6.588;2023-06-14T13:13:55;2.20;;;1.02;;
76259;SDS011;65076;52.362;6.588;2023-06-14T13:16:23;3.80;;;1.00;;
76259;SDS011;65076;52.362;6.588;2023-06-14T13:18:51;6.03;;;1.13;;
76259;SDS011;65076;52.362;6.588;2023-06-14T13:21:19;2.78;;;1.15;;
76259;SDS011;65076;52.362;6.588;2023-06-14T13:23:47;2.78;;;1.02;;
76259;SDS011;65076;52.362;6.588;2023-06-14T13:26:15;1.05;;;0.80;;
76259;SDS011;65076;52.362;6.588;2023-06-14T13:28:44;2.25;;;0.88;;
76259;SDS011;65076;52.362;6.588;2023-06-14T13:31:13;0.95;;;0.82;;
76259;SDS011;65076;52.362;6.588;2023-06-14T13:36:09;2.00;;;1.00;;
76259;SDS011;65076;52.362;6.588;2023-06-14T13:38:37;1.33;;;1.23;;
76259;SDS011;65076;52.362;6.588;2023-06-14T13:41:05;2.58;;;1.02;;
76259;SDS011;65076;52.362;6.588;2023-06-14T13:43:33;0.82;;;0.82;;
76259;SDS011;65076;52.362;6.588;2023-06-14T13:46:01;1.67;;;1.23;;
76259;SDS011;65076;52.362;6.588;2023-06-14T13:48:30;1.58;;;1.13;;
76259;SDS011;65076;52.362;6.588;2023-06-14T13:55:55;1.30;;;0.80;;
76259;SDS011;65076;52.362;6.588;2023-06-14T13:58:23;2.53;;;0.85;;
76259;SDS011;65076;52.362;6.588;2023-06-14T14:00:51;1.45;;;0.93;;
76259;SDS011;65076;52.362;6.588;2023-06-14T14:03:20;1.92;;;0.90;;
76259;SDS011;65076;52.362;6.588;2023-06-14T14:05:50;1.88;;;1.10;;
76259;SDS011;65076;52.362;6.588;2023-06-14T14:08:18;0.98;;;0.80;;
76259;SDS011;65076;52.362;6.588;2023-06-14T14:10:45;1.98;;;0.88;;
76259;SDS011;65076;52.362;6.588;2023-06-14T14:13:13;3.20;;;1.02;;
76259;SDS011;65076;52.362;6.588;2023-06-14T14:15:41;1.63;;;0.95;;
76259;SDS011;65076;52.362;6.588;2023-06-14T14:18:09;1.00;;;0.90;;
76259;SDS011;65076;52.362;6.588;2023-06-14T14:20:38;3.08;;;1.00;;
76259;SDS011;65076;52.362;6.588;2023-06-14T14:23:08;2.33;;;0.95;;
76259;SDS011;65076;52.362;6.588;2023-06-14T14:25:36;1.35;;;0.90;;
76259;SDS011;65076;52.362;6.588;2023-06-14T14:28:04;1.10;;;0.95;;
76259;SDS011;65076;52.362;6.588;2023-06-14T14:30:32;3.83;;;1.05;;
76259;SDS011;65076;52.362;6.588;2023-06-14T14:33:00;1.85;;;0.90;;
76259;SDS011;65076;52.362;6.588;2023-06-14T14:35:29;1.50;;;1.00;;
76259;SDS011;65076;52.362;6.588;2023-06-14T14:37:57;2.80;;;1.10;;
76259;SDS011;65076;52.362;6.588;2023-06-14T14:40:26;1.98;;;0.88;;
76259;SDS011;65076;52.362;6.588;2023-06-14T14:42:54;1.10;;;0.90;;
76259;SDS011;65076;52.362;6.588;2023-06-14T14:45:22;3.13;;;0.95;;
76259;SDS011;65076;52.362;6.588;2023-06-14T14:47:50;1.25;;;0.80;;
76259;SDS011;65076;52.362;6.588;2023-06-14T14:50:21;1.55;;;1.00;;
76259;SDS011;65076;52.362;6.588;2023-06-14T14:52:49;1.70;;;1.00;;
76259;SDS011;65076;52.362;6.588;2023-06-14T14:55:17;2.33;;;0.90;;
76259;SDS011;65076;52.362;6.588;2023-06-14T14:57:47;0.95;;;0.82;;
76259;SDS011;65076;52.362;6.588;2023-06-14T15:00:15;3.03;;;0.80;;
76259;SDS011;65076;52.362;6.588;2023-06-14T15:02:45;5.10;;;0.85;;
76259;SDS011;65076;52.362;6.588;2023-06-14T15:05:13;1.67;;;0.82;;
76259;SDS011;65076;52.362;6.588;2023-06-14T15:07:41;3.70;;;1.00;;
76259;SDS011;65076;52.362;6.588;2023-06-14T15:10:08;0.90;;;0.60;;
76259;SDS011;65076;52.362;6.588;2023-06-14T15:12:37;4.22;;;1.20;;
76259;SDS011;65076;52.362;6.588;2023-06-14T15:15:07;3.53;;;0.90;;
76259;SDS011;65076;52.362;6.588;2023-06-14T15:17:36;1.90;;;0.90;;
76259;SDS011;65076;52.362;6.588;2023-06-14T15:20:04;1.40;;;0.88;;
76259;SDS011;65076;52.362;6.588;2023-06-14T15:22:34;0.80;;;0.80;;
76259;SDS011;65076;52.362;6.588;2023-06-14T15:25:02;1.60;;;0.80;;
76259;SDS011;65076;52.362;6.588;2023-06-14T15:29:59;0.90;;;0.80;;
76259;SDS011;65076;52.362;6.588;2023-06-14T15:32:29;1.40;;;0.80;;
76259;SDS011;65076;52.362;6.588;2023-06-14T15:34:57;1.23;;;0.70;;